createdAt,value
2023-06-02T00:02:17.217Z,12.50
2023-06-02T00:12:39.223Z,14.77
2023-06-02T00:23:03.126Z,17.23
2023-06-02T00:33:25.222Z,13.68
2023-06-02T00:43:48.269Z,14.70
2023-06-02T00:54:10.503Z,7.93
2023-06-02T01:04:33.913Z,14.10
2023-06-02T01:14:55.623Z,14.57
2023-06-02T01:25:27.030Z,15.77
2023-06-02T01:35:51.576Z,15.48
2023-06-02T01:46:15.375Z,10.82
2023-06-02T01:56:37.084Z,12.68
2023-06-02T02:07:02.280Z,13.32
2023-06-02T02:17:26.573Z,12.82
2023-06-02T02:27:50.729Z,15.15
2023-06-02T02:38:12.175Z,11.98
2023-06-02T02:48:36.273Z,11.80
2023-06-02T02:59:00.612Z,13.30
2023-06-02T03:09:23.812Z,16.70
2023-06-02T03:19:45.858Z,13.45
2023-06-02T03:30:11.907Z,13.43
2023-06-02T03:40:36.455Z,22.30
2023-06-02T03:50:59.921Z,9.48
2023-06-02T04:01:24.361Z,16.63
2023-06-02T04:11:49.675Z,13.95
2023-06-02T04:22:12.212Z,21.70
2023-06-02T04:32:36.238Z,16.20
2023-06-02T04:42:57.986Z,19.83
2023-06-02T04:53:22.627Z,11.27
2023-06-02T05:03:44.572Z,12.65
2023-06-02T05:14:08.907Z,22.00
2023-06-02T05:24:32.051Z,16.02
2023-06-02T05:34:55.132Z,14.98
2023-06-02T05:45:17.979Z,16.60
2023-06-02T05:55:43.693Z,13.45
2023-06-02T06:06:06.493Z,19.90
2023-06-02T06:16:29.878Z,20.13
2023-06-02T06:26:51.818Z,17.38
2023-06-02T06:37:15.059Z,10.48
2023-06-02T06:47:36.517Z,16.63
2023-06-02T06:57:59.938Z,26.48
2023-06-02T07:08:21.870Z,16.33
2023-06-02T07:18:45.129Z,20.05
2023-06-02T07:29:06.991Z,19.10
2023-06-02T07:39:30.162Z,18.42
2023-06-02T07:49:51.943Z,18.08
2023-06-02T08:00:17.468Z,19.27
2023-06-02T08:10:40.253Z,17.77
2023-06-02T08:21:05.716Z,17.35
2023-06-02T08:31:28.070Z,18.50
2023-06-02T08:41:52.501Z,18.13
2023-06-02T08:52:17.141Z,14.55
2023-06-02T09:02:41.220Z,21.50
2023-06-02T09:13:03.374Z,12.27
2023-06-02T09:23:42.472Z,13.55
2023-06-02T09:34:03.923Z,11.85
2023-06-02T09:44:28.202Z,7.35
2023-06-02T09:54:51.025Z,7.90
2023-06-02T10:05:14.476Z,4.80
2023-06-02T10:16:05.504Z,3.53
2023-06-02T10:26:41.497Z,5.22
2023-06-02T10:37:19.593Z,3.00
2023-06-02T10:47:43.090Z,3.28
2023-06-02T10:58:06.190Z,3.93
2023-06-02T11:08:29.708Z,6.32
2023-06-02T11:18:51.094Z,5.03
2023-06-02T11:29:20.899Z,3.17
2023-06-02T11:39:52.805Z,4.35
2023-06-02T11:50:18.877Z,2.53
2023-06-02T12:00:40.725Z,5.90
2023-06-02T12:11:04.385Z,7.40
2023-06-02T12:21:27.769Z,6.60
2023-06-02T12:31:57.753Z,4.13
2023-06-02T12:42:21.237Z,4.28
2023-06-02T12:52:45.204Z,3.17
2023-06-02T13:03:07.879Z,4.68
2023-06-02T13:13:30.702Z,2.15
2023-06-02T13:23:55.594Z,5.37
2023-06-02T13:34:18.702Z,5.60
2023-06-02T13:44:40.315Z,3.13
2023-06-02T13:55:03.199Z,1.73
2023-06-02T14:05:24.429Z,4.13
2023-06-02T14:15:48.029Z,3.88
2023-06-02T14:26:09.989Z,1.70
2023-06-02T14:36:33.117Z,4.25
2023-06-02T14:46:54.911Z,0.85
2023-06-02T14:57:18.058Z,1.13
2023-06-02T15:07:39.915Z,6.03
2023-06-02T15:18:03.092Z,3.08
2023-06-02T15:38:47.930Z,1.98
2023-06-02T15:49:09.841Z,3.43
2023-06-02T15:59:32.808Z,6.75
2023-06-02T16:09:54.497Z,3.63
2023-06-02T16:20:18.112Z,5.13
2023-06-02T16:30:40.068Z,1.88
2023-06-02T16:41:04.101Z,3.55
2023-06-02T16:51:26.749Z,1.60
2023-06-02T17:01:49.903Z,1.45
2023-06-02T17:12:11.791Z,1.45
2023-06-02T17:22:34.719Z,2.80
2023-06-02T17:32:56.594Z,2.40
2023-06-02T17:43:19.807Z,3.67
2023-06-02T18:04:05.203Z,1.67
2023-06-02T18:14:27.378Z,2.43
2023-06-02T18:24:50.347Z,1.85
2023-06-02T18:35:11.951Z,5.40
2023-06-02T18:45:34.958Z,1.17
2023-06-02T18:55:56.656Z,2.30
2023-06-02T19:06:19.897Z,3.47
2023-06-02T19:16:41.496Z,6.60
2023-06-02T19:27:04.648Z,2.35
2023-06-02T19:37:26.575Z,3.92
2023-06-02T19:47:49.324Z,3.13
2023-06-02T19:58:11.550Z,2.17
2023-06-02T20:08:35.338Z,4.95
2023-06-02T20:18:57.130Z,4.15
2023-06-02T20:29:19.851Z,2.78
2023-06-02T20:39:41.673Z,3.17
2023-06-02T20:50:05.060Z,2.13
2023-06-02T21:00:26.707Z,1.63
2023-06-02T21:10:49.761Z,4.32
2023-06-02T21:21:11.132Z,2.70
2023-06-02T21:31:34.286Z,3.08
2023-06-02T21:41:55.770Z,3.17
2023-06-02T21:52:18.816Z,3.70
2023-06-02T22:02:40.306Z,4.75
2023-06-02T22:13:03.726Z,4.07
2023-06-02T22:23:25.404Z,6.93
2023-06-02T22:33:48.651Z,2.60
2023-06-02T22:44:10.510Z,2.85
2023-06-02T22:54:33.551Z,1.45
2023-06-02T23:04:55.301Z,3.20
2023-06-02T23:15:19.721Z,3.58
2023-06-02T23:25:41.479Z,5.82
2023-06-02T23:36:04.654Z,3.92
2023-06-02T23:46:26.396Z,2.58
2023-06-02T23:56:49.425Z,3.83
